KUCP

Details ICAO KUCP
Name NEW CASTLE MUNI
Region United States
Timezone America/New_York (UTC-5.0)
Plans Departing 4
Arriving 1
Stats Elevation 1,072 ft / 327 m (AMSL)
Location 41.025040° -80.413438°
Runways 2
Magnetic Variation 9.144° W
Sunrise 2017-12-11 12:38:09 UTC / 2017-12-11 07:38:09 Local
Sunset 2017-12-11 21:54:47 UTC / 2017-12-11 16:54:47 Local
Advertisement - Login to hide

Runways

ID Width Length Bearing (true) Bearing (mag) Surface Threshold Offset Overrun Length
05 75 ft / 23 m 3,997 ft / 1,218 m 39.67° 48.81° Asphalt 0 ft / 0 m 0 ft / 0 m
13 100 ft / 30 m 2,849 ft / 868 m 118.87° 128.01° Asphalt 0 ft / 0 m 0 ft / 0 m
23 75 ft / 23 m 3,997 ft / 1,218 m 219.68° 228.82° Asphalt 0 ft / 0 m 0 ft / 0 m
31 100 ft / 30 m 2,849 ft / 868 m 298.88° 308.02° Asphalt 114 ft / 35 m 0 ft / 0 m

Map

Weather


0- 5 10 15 20 25 30 35+ Temperature / ° C

Clouds and Precipitation
Forecast for 2017-12-11 18:00 UTC. Updated 18 minutes ago

Ground ~20,000 ft ~40,000 ft Winds

METAR

KUCP 111456Z AUTO 22007KT 10SM OVC029 M01/M07 A3004 RMK AO2 SLP200 T10111067 55000

TAF

Not found

Frequencies

Recorded 124.17 MHz ASOS
Approach 133.95 MHz YOUNGSTOWN APP/DEP
Unicom 123.00 MHz CTAF/UNICOM
Warning: Do not use this data for real-world aviation or navigation. No guarantee of current accuracy is given.